sensor_id;sensor_type;location;lat;lon;timestamp;temperature;humidity
12374;DHT22;6251;51.762;8.660;2023-12-29T00:09:20;9.00;99.90
12374;DHT22;6251;51.762;8.660;2023-12-29T02:01:04;9.60;99.90
12374;DHT22;6251;51.762;8.660;2023-12-29T02:11:07;9.60;99.90
12374;DHT22;6251;51.762;8.660;2023-12-29T03:54:29;8.30;99.90
12374;DHT22;6251;51.762;8.660;2023-12-29T05:05:33;8.10;99.90
12374;DHT22;6251;51.762;8.660;2023-12-29T05:15:33;8.20;99.90
12374;DHT22;6251;51.762;8.660;2023-12-29T05:25:34;8.10;99.90
12374;DHT22;6251;51.762;8.660;2023-12-29T05:35:35;8.00;99.90
12374;DHT22;6251;51.762;8.660;2023-12-29T05:45:35;8.00;99.90
12374;DHT22;6251;51.762;8.660;2023-12-29T05:55:36;8.00;99.90
12374;DHT22;6251;51.762;8.660;2023-12-29T06:05:36;8.10;99.90
12374;DHT22;6251;51.762;8.660;2023-12-29T06:15:37;8.10;99.90
12374;DHT22;6251;51.762;8.660;2023-12-29T06:25:38;8.20;99.90
12374;DHT22;6251;51.762;8.660;2023-12-29T06:35:41;8.20;99.90
12374;DHT22;6251;51.762;8.660;2023-12-29T06:45:42;8.20;99.90
12374;DHT22;6251;51.762;8.660;2023-12-29T06:55:42;8.30;99.90
12374;DHT22;6251;51.762;8.660;2023-12-29T07:05:43;8.30;99.90
12374;DHT22;6251;51.762;8.660;2023-12-29T07:15:44;8.30;99.90
12374;DHT22;6251;51.762;8.660;2023-12-29T07:25:44;8.40;99.90
12374;DHT22;6251;51.762;8.660;2023-12-29T07:35:45;8.40;99.90
12374;DHT22;6251;51.762;8.660;2023-12-29T07:45:45;8.40;99.90
12374;DHT22;6251;51.762;8.660;2023-12-29T07:55:46;8.30;99.90
12374;DHT22;6251;51.762;8.660;2023-12-29T08:05:49;8.40;99.90
12374;DHT22;6251;51.762;8.660;2023-12-29T08:15:50;8.60;99.90
12374;DHT22;6251;51.762;8.660;2023-12-29T08:25:50;8.60;99.90
12374;DHT22;6251;51.762;8.660;2023-12-29T08:35:51;8.60;99.90
12374;DHT22;6251;51.762;8.660;2023-12-29T08:45:52;8.60;99.90
12374;DHT22;6251;51.762;8.660;2023-12-29T08:55:52;8.50;99.90
12374;DHT22;6251;51.762;8.660;2023-12-29T09:05:53;8.60;99.90
12374;DHT22;6251;51.762;8.660;2023-12-29T09:15:54;8.60;99.90
12374;DHT22;6251;51.762;8.660;2023-12-29T09:25:55;8.60;99.90
12374;DHT22;6251;51.762;8.660;2023-12-29T09:35:55;8.60;99.90
12374;DHT22;6251;51.762;8.660;2023-12-29T09:45:57;8.60;99.90
12374;DHT22;6251;51.762;8.660;2023-12-29T09:55:59;8.70;99.90
12374;DHT22;6251;51.762;8.660;2023-12-29T10:06:03;8.80;99.90
12374;DHT22;6251;51.762;8.660;2023-12-29T10:26:42;9.00;99.90
12374;DHT22;6251;51.762;8.660;2023-12-29T10:36:50;9.00;99.90
12374;DHT22;6251;51.762;8.660;2023-12-29T10:46:50;9.10;99.90
12374;DHT22;6251;51.762;8.660;2023-12-29T10:57:01;9.20;99.90
12374;DHT22;6251;51.762;8.660;2023-12-29T11:07:03;9.40;99.90
12374;DHT22;6251;51.762;8.660;2023-12-29T11:17:04;9.40;99.90
12374;DHT22;6251;51.762;8.660;2023-12-29T11:27:07;9.50;99.90
12374;DHT22;6251;51.762;8.660;2023-12-29T11:37:36;9.50;99.90
12374;DHT22;6251;51.762;8.660;2023-12-29T11:47:38;9.60;99.90
12374;DHT22;6251;51.762;8.660;2023-12-29T11:57:39;9.70;99.90
12374;DHT22;6251;51.762;8.660;2023-12-29T12:17:41;9.80;99.90
12374;DHT22;6251;51.762;8.660;2023-12-29T12:27:42;9.90;99.90
12374;DHT22;6251;51.762;8.660;2023-12-29T12:37:43;10.10;99.90
12374;DHT22;6251;51.762;8.660;2023-12-29T12:47:45;10.10;99.90
12374;DHT22;6251;51.762;8.660;2023-12-29T12:57:50;10.20;99.90
12374;DHT22;6251;51.762;8.660;2023-12-29T13:07:54;10.20;99.90
12374;DHT22;6251;51.762;8.660;2023-12-29T13:17:56;10.10;99.90
12374;DHT22;6251;51.762;8.660;2023-12-29T13:27:56;10.00;99.90
12374;DHT22;6251;51.762;8.660;2023-12-29T13:38:08;10.00;99.90
12374;DHT22;6251;51.762;8.660;2023-12-29T13:48:11;10.10;99.90
12374;DHT22;6251;51.762;8.660;2023-12-29T13:58:12;10.20;99.90
12374;DHT22;6251;51.762;8.660;2023-12-29T14:28:46;9.90;99.90
12374;DHT22;6251;51.762;8.660;2023-12-29T14:38:47;9.50;99.90
12374;DHT22;6251;51.762;8.660;2023-12-29T14:48:48;9.00;99.90
12374;DHT22;6251;51.762;8.660;2023-12-29T14:58:48;8.70;99.90
12374;DHT22;6251;51.762;8.660;2023-12-29T15:08:49;8.40;99.90
12374;DHT22;6251;51.762;8.660;2023-12-29T15:18:49;8.20;99.90
12374;DHT22;6251;51.762;8.660;2023-12-29T15:28:50;8.00;99.90
12374;DHT22;6251;51.762;8.660;2023-12-29T15:38:52;7.90;99.90
12374;DHT22;6251;51.762;8.660;2023-12-29T15:48:53;7.80;99.90
12374;DHT22;6251;51.762;8.660;2023-12-29T15:58:55;7.70;99.90
12374;DHT22;6251;51.762;8.660;2023-12-29T16:08:57;7.70;99.90
12374;DHT22;6251;51.762;8.660;2023-12-29T16:18:59;7.70;99.90
12374;DHT22;6251;51.762;8.660;2023-12-29T16:29:00;7.80;99.90
12374;DHT22;6251;51.762;8.660;2023-12-29T16:39:01;7.80;99.90
12374;DHT22;6251;51.762;8.660;2023-12-29T16:49:04;7.80;99.90
12374;DHT22;6251;51.762;8.660;2023-12-29T16:59:05;7.90;99.90
12374;DHT22;6251;51.762;8.660;2023-12-29T17:09:06;8.00;99.90
12374;DHT22;6251;51.762;8.660;2023-12-29T17:19:07;8.10;99.90
12374;DHT22;6251;51.762;8.660;2023-12-29T17:29:07;8.10;99.90
12374;DHT22;6251;51.762;8.660;2023-12-29T17:39:08;8.20;99.90
12374;DHT22;6251;51.762;8.660;2023-12-29T17:49:08;8.30;99.90
12374;DHT22;6251;51.762;8.660;2023-12-29T17:59:09;8.40;99.90
12374;DHT22;6251;51.762;8.660;2023-12-29T18:09:10;8.40;99.90
12374;DHT22;6251;51.762;8.660;2023-12-29T18:19:14;8.40;99.90
12374;DHT22;6251;51.762;8.660;2023-12-29T18:29:14;8.30;99.90
12374;DHT22;6251;51.762;8.660;2023-12-29T18:39:15;8.30;99.90
12374;DHT22;6251;51.762;8.660;2023-12-29T18:49:16;8.30;99.90
12374;DHT22;6251;51.762;8.660;2023-12-29T18:59:16;8.20;99.90
12374;DHT22;6251;51.762;8.660;2023-12-29T19:09:17;8.20;99.90
12374;DHT22;6251;51.762;8.660;2023-12-29T19:19:18;8.30;99.90
12374;DHT22;6251;51.762;8.660;2023-12-29T19:29:19;8.40;99.90
12374;DHT22;6251;51.762;8.660;2023-12-29T19:39:19;8.40;99.90
12374;DHT22;6251;51.762;8.660;2023-12-29T19:49:20;8.50;99.90
12374;DHT22;6251;51.762;8.660;2023-12-29T19:59:21;8.60;99.90
12374;DHT22;6251;51.762;8.660;2023-12-29T20:09:21;8.70;99.90
12374;DHT22;6251;51.762;8.660;2023-12-29T20:19:22;8.70;99.90
12374;DHT22;6251;51.762;8.660;2023-12-29T20:29:23;8.70;99.90
12374;DHT22;6251;51.762;8.660;2023-12-29T20:39:24;8.80;99.90
12374;DHT22;6251;51.762;8.660;2023-12-29T20:49:25;8.70;99.90
12374;DHT22;6251;51.762;8.660;2023-12-29T20:59:26;8.70;99.90
12374;DHT22;6251;51.762;8.660;2023-12-29T21:09:26;8.30;99.90
12374;DHT22;6251;51.762;8.660;2023-12-29T21:19:27;8.00;99.90
12374;DHT22;6251;51.762;8.660;2023-12-29T21:29:27;7.70;99.90
12374;DHT22;6251;51.762;8.660;2023-12-29T21:39:28;7.40;99.90
12374;DHT22;6251;51.762;8.660;2023-12-29T21:49:28;7.20;99.90
12374;DHT22;6251;51.762;8.660;2023-12-29T21:59:29;7.10;99.90
